KDYS/DYS METAR and TAF weather

Enter ICAO airport designator
Station Type Date Time Source
KDYS METAR 2024/02/26 16:55 UTC NOAA

KDYS 261655Z AUTO 25013KT 10SM CLR 30/M00 A2990 RMK AO2 SLP083 T02991005


Station Type Date Time Source
KDYS Decoded METAR 2024/02/26 16:55 UTC NOAA

Abilene, Dyess Air Force Base, TX, United States (KDYS) 32-25-12N 099-51-25W
Feb 26, 2024 - 11:55 AM EST / 2024.02.26 1655 UTC
Wind: from the WSW (250 degrees) at 15 MPH (13 KT):0
Visibility: 10 mile(s):0
Sky conditions: clear
Temperature: 85.8 F (29.9 C)
Dew Point: 31.1 F (-0.5 C)
Relative Humidity: 13%
Pressure (altimeter): 29.9 in. Hg (1012 hPa)
ob: KDYS 261655Z AUTO 25013KT 10SM CLR 30/M00 A2990 RMK AO2 SLP083 T02991005
cycle: 17

Station Type Date Time Source
KDYS TAF 2024/02/26 17:03 UTC NOAA